Time;durP1;ratioP1;P1;durP2;ratioP2;P2;SDS_P1;SDS_P2;PMS_P1;PMS_P2;Temp;Humidity;BMP_temperature;BMP_pressure;BME280_temperature;BME280_humidity;BME280_pressure;Samples;Min_cycle;Max_cycle;Signal;HPM_P1;HPM_P2
2022/05/01 00:01:01;;;;;;;;;;;;;;;;;;5032603;28;1127;-74
2022/05/01 00:03:31;;;;;;;;;;;;;;;;;;5031316;28;1429;-73
2022/05/01 00:05:58;;;;;;;;;;;;;;;;;;5032569;28;1052;-73
2022/05/01 00:08:24;;;;;;;;;;;;;;;;;;5032055;28;1982;-73
2022/05/01 00:10:51;;;;;;;;;;;;;;;;;;5031851;28;818;-73
2022/05/01 00:13:17;;;;;;;;;;;;;;;;;;5032379;28;1134;-74
2022/05/01 00:15:43;;;;;;;;;;;;;;;;;;5030943;28;1139;-74
2022/05/01 00:18:09;;;;;;;;;;;;;;;;;;5031516;28;1417;-74
2022/05/01 00:20:37;;;;;;;;;;;;;;;;;;5031867;28;811;-74
2022/05/01 00:23:03;;;;;;;;;;;;;;;;;;5032142;28;1124;-74
2022/05/01 00:25:30;;;;;;;;;;;;;;;;;;5032284;28;898;-73
2022/05/01 00:27:56;;;;;;;;;;;;;;;;;;5031802;28;1397;-74
2022/05/01 00:30:22;;;;;;;;;;;;;;;;;;5030544;28;1981;-73
2022/05/01 00:38:18;;;;;;;;;;;;;;;;;;5031704;28;1430;-74
2022/05/01 00:40:44;;;;;;;;;;;;;;;;;;5031380;28;810;-74
2022/05/01 00:43:10;;;;;;;;;;;;;;;;;;5032095;28;1047;-73
2022/05/01 00:45:36;;;;;;;;;;;;;;;;;;5031802;28;1080;-74
2022/05/01 00:48:02;;;;;;;;;;;;;;;;;;5031399;28;1403;-74
2022/05/01 00:50:28;;;;;;;;;;;;;;;;;;5031417;28;2048;-72
2022/05/01 00:52:55;;;;;;;;;;;;;;;;;;5030782;28;1123;-73
2022/05/01 00:55:22;;;;;;;;;;;;;;;;;;5031544;28;1098;-73
2022/05/01 00:57:49;;;;;;;;;;;;;;;;;;5030914;28;1321;-73
2022/05/01 01:00:16;;;;;;;;;;;;;;;;;;5031718;28;958;-74
2022/05/01 01:02:42;;;;;;;;;;;;;;;;;;5031201;28;859;-74
2022/05/01 01:05:09;;;;;;;;;;;;;;;;;;5031615;28;835;-74
2022/05/01 01:07:35;;;;;;;;;;;;;;;;;;5030841;28;1332;-74
2022/05/01 01:10:01;;;;;;;;;;;;;;;;;;5030910;28;1882;-74
2022/05/01 01:15:13;;;;;;;;;;;;;;;;;;5030792;28;1449;-74
2022/05/01 01:17:41;;;;;;;;;;;;;;;;;;5029512;28;1357;-72
2022/05/01 01:20:11;;;;;;;;;;;;;;;;;;5031101;28;889;-74
2022/05/01 01:22:38;;;;;;;;;;;;;;;;;;5031132;28;1092;-73
2022/05/01 01:25:05;;;;;;;;;;;;;;;;;;5031267;28;1071;-73
2022/05/01 01:27:31;;;;;;;;;;;;;;;;;;5030788;28;1275;-73
2022/05/01 01:32:41;;;;;;;;;;;;;;;;;;5030892;28;1008;-74
2022/05/01 01:35:08;;;;;;;;;;;;;;;;;;5031038;28;794;-74
2022/05/01 01:37:34;;;;;;;;;;;;;;;;;;5030334;28;1306;-74
2022/05/01 01:40:02;;;;;;;;;;;;;;;;;;5030775;28;1067;-73
2022/05/01 01:42:28;;;;;;;;;;;;;;;;;;5030841;28;802;-73
2022/05/01 01:44:54;;;;;;;;;;;;;;;;;;5029373;28;1252;-74
2022/05/01 01:47:21;;;;;;;;;;;;;;;;;;5030597;28;1395;-74
2022/05/01 01:49:47;;;;;;;;;;;;;;;;;;5029234;28;1930;-74
2022/05/01 01:52:13;;;;;;;;;;;;;;;;;;5030720;28;949;-73
2022/05/01 01:54:40;;;;;;;;;;;;;;;;;;5029535;28;850;-73
2022/05/01 01:57:07;;;;;;;;;;;;;;;;;;5030160;28;1397;-73
2022/05/01 01:59:33;;;;;;;;;;;;;;;;;;5030261;28;1111;-73
2022/05/01 02:02:01;;;;;;;;;;;;;;;;;;5030771;28;862;-74
2022/05/01 02:04:27;;;;;;;;;;;;;;;;;;5030441;28;1091;-73
2022/05/01 02:06:53;;;;;;;;;;;;;;;;;;5029992;28;1318;-73
2022/05/01 02:09:19;;;;;;;;;;;;;;;;;;5030590;28;1918;-73
2022/05/01 02:11:45;;;;;;;;;;;;;;;;;;5030281;28;1127;-74
2022/05/01 02:14:13;;;;;;;;;;;;;;;;;;5025819;28;1994;-73
2022/05/01 02:16:40;;;;;;;;;;;;;;;;;;5027520;28;1925;-73
2022/05/01 02:19:06;;;;;;;;;;;;;;;;;;5029919;28;1114;-74
2022/05/01 02:21:35;;;;;;;;;;;;;;;;;;5022732;28;1275;-74
2022/05/01 02:24:03;;;;;;;;;;;;;;;;;;5010890;28;870;-74
2022/05/01 02:26:29;;;;;;;;;;;;;;;;;;5010472;28;1380;-74
2022/05/01 02:28:55;;;;;;;;;;;;;;;;;;5009180;28;1974;-73
2022/05/01 02:31:23;;;;;;;;;;;;;;;;;;5010669;28;1024;-73
2022/05/01 02:33:49;;;;;;;;;;;;;;;;;;5010886;28;707;-73
2022/05/01 02:36:16;;;;;;;;;;;;;;;;;;5008720;28;1364;-72
2022/05/01 02:38:44;;;;;;;;;;;;;;;;;;5010556;28;1064;-73
2022/05/01 02:41:10;;;;;;;;;;;;;;;;;;5010093;28;1401;-73
2022/05/01 02:43:36;;;;;;;;;;;;;;;;;;5010544;28;954;-74
2022/05/01 02:46:02;;;;;;;;;;;;;;;;;;5010501;28;779;-74
2022/05/01 02:48:30;;;;;;;;;;;;;;;;;;5008902;28;1357;-73
2022/05/01 02:50:56;;;;;;;;;;;;;;;;;;5009828;28;1987;-73
2022/05/01 02:53:22;;;;;;;;;;;;;;;;;;5010295;28;1068;-74
2022/05/01 02:55:49;;;;;;;;;;;;;;;;;;5010071;28;871;-73
2022/05/01 02:58:15;;;;;;;;;;;;;;;;;;5010018;28;1283;-74
2022/05/01 03:00:41;;;;;;;;;;;;;;;;;;5010438;28;933;-73
2022/05/01 03:03:08;;;;;;;;;;;;;;;;;;5008985;28;1279;-73
2022/05/01 03:05:36;;;;;;;;;;;;;;;;;;5010295;28;1060;-74
2022/05/01 03:08:02;;;;;;;;;;;;;;;;;;5009733;28;1433;-73
2022/05/01 03:10:28;;;;;;;;;;;;;;;;;;5010162;28;1914;-73
2022/05/01 03:12:55;;;;;;;;;;;;;;;;;;5008528;28;1338;-73
2022/05/01 03:15:24;;;;;;;;;;;;;;;;;;5011811;28;1079;-73
2022/05/01 03:23:19;;;;;;;;;;;;;;;;;;5033534;28;1000;-73
2022/05/01 03:25:45;;;;;;;;;;;;;;;;;;5033456;28;1131;-74
2022/05/01 03:28:11;;;;;;;;;;;;;;;;;;5032615;28;1269;-74
2022/05/01 03:30:38;;;;;;;;;;;;;;;;;;5032883;28;1906;-73
2022/05/01 03:33:07;;;;;;;;;;;;;;;;;;5031853;28;1132;-74
2022/05/01 03:35:35;;;;;;;;;;;;;;;;;;5033385;28;890;-74
2022/05/01 03:38:01;;;;;;;;;;;;;;;;;;5032183;28;1284;-73
2022/05/01 03:40:29;;;;;;;;;;;;;;;;;;5033131;28;1139;-73
2022/05/01 03:42:55;;;;;;;;;;;;;;;;;;5033014;28;861;-74
2022/05/01 03:45:21;;;;;;;;;;;;;;;;;;5033106;28;1120;-74
2022/05/01 03:47:47;;;;;;;;;;;;;;;;;;5032406;28;1290;-73
2022/05/01 03:50:13;;;;;;;;;;;;;;;;;;5032714;28;1914;-73
2022/05/01 03:52:39;;;;;;;;;;;;;;;;;;5031581;28;1128;-73
2022/05/01 03:55:07;;;;;;;;;;;;;;;;;;5032887;28;818;-74
2022/05/01 03:57:34;;;;;;;;;;;;;;;;;;5033298;28;1292;-73
2022/05/01 04:00:00;;;;;;;;;;;;;;;;;;5029636;28;2038;-72
2022/05/01 04:02:27;;;;;;;;;;;;;;;;;;5032514;28;1129;-73
2022/05/01 04:04:53;;;;;;;;;;;;;;;;;;5031038;28;1293;-73
2022/05/01 04:07:19;;;;;;;;;;;;;;;;;;5031710;28;1298;-73
2022/05/01 04:09:45;;;;;;;;;;;;;;;;;;5032497;28;1910;-73
2022/05/01 04:12:13;;;;;;;;;;;;;;;;;;5032209;28;851;-73
2022/05/01 04:14:40;;;;;;;;;;;;;;;;;;5032569;28;1143;-73
2022/05/01 04:17:06;;;;;;;;;;;;;;;;;;5031668;28;1305;-73
2022/05/01 04:19:33;;;;;;;;;;;;;;;;;;5032498;28;1068;-73
2022/05/01 04:21:59;;;;;;;;;;;;;;;;;;5030406;28;1171;-73
2022/05/01 04:24:25;;;;;;;;;;;;;;;;;;5032212;28;1135;-73
2022/05/01 04:26:51;;;;;;;;;;;;;;;;;;5029171;28;1301;-73
2022/05/01 04:32:04;;;;;;;;;;;;;;;;;;5032016;28;1055;-73
2022/05/01 04:34:30;;;;;;;;;;;;;;;;;;5030795;28;969;-73
2022/05/01 04:36:58;;;;;;;;;;;;;;;;;;5031437;28;1297;-73
2022/05/01 04:39:24;;;;;;;;;;;;;;;;;;5031508;28;779;-73
2022/05/01 04:41:50;;;;;;;;;;;;;;;;;;5031503;28;965;-73
2022/05/01 04:44:16;;;;;;;;;;;;;;;;;;5031670;28;1108;-72
2022/05/01 04:46:43;;;;;;;;;;;;;;;;;;5031497;28;1385;-72
2022/05/01 04:49:12;;;;;;;;;;;;;;;;;;5030407;28;1535;-73
2022/05/01 04:51:38;;;;;;;;;;;;;;;;;;5031568;28;1980;-73
2022/05/01 04:54:04;;;;;;;;;;;;;;;;;;5031210;28;1059;-73
2022/05/01 04:59:14;;;;;;;;;;;;;;;;;;5031546;28;977;-73
2022/05/01 05:01:41;;;;;;;;;;;;;;;;;;5031380;28;907;-73
2022/05/01 05:04:08;;;;;;;;;;;;;;;;;;5031513;28;850;-73
2022/05/01 05:06:35;;;;;;;;;;;;;;;;;;5031257;28;1314;-72
2022/05/01 05:11:45;;;;;;;;;;;;;;;;;;5030184;28;1993;-72
2022/05/01 05:14:11;;;;;;;;;;;;;;;;;;5030101;28;1317;-72
2022/05/01 05:16:37;;;;;;;;;;;;;;;;;;5031109;28;1325;-72
2022/05/01 05:19:04;;;;;;;;;;;;;;;;;;5029957;28;1131;-73
2022/05/01 05:21:30;;;;;;;;;;;;;;;;;;5031230;28;944;-73
2022/05/01 05:23:57;;;;;;;;;;;;;;;;;;5031135;28;1063;-73
2022/05/01 05:26:23;;;;;;;;;;;;;;;;;;5030260;28;1282;-73
2022/05/01 05:28:50;;;;;;;;;;;;;;;;;;5031237;28;1028;-73
2022/05/01 05:31:16;;;;;;;;;;;;;;;;;;5030942;28;1976;-73
2022/05/01 05:33:42;;;;;;;;;;;;;;;;;;5031168;28;945;-73
2022/05/01 05:36:08;;;;;;;;;;;;;;;;;;5030216;28;1063;-72
2022/05/01 05:38:35;;;;;;;;;;;;;;;;;;5030540;28;1277;-73
2022/05/01 05:41:02;;;;;;;;;;;;;;;;;;5030744;28;890;-73
2022/05/01 05:43:28;;;;;;;;;;;;;;;;;;5030756;28;1067;-73
2022/05/01 05:45:54;;;;;;;;;;;;;;;;;;5030619;28;904;-73
2022/05/01 05:48:21;;;;;;;;;;;;;;;;;;5030527;28;1294;-73
2022/05/01 05:50:47;;;;;;;;;;;;;;;;;;5030567;28;1902;-73
2022/05/01 05:53:13;;;;;;;;;;;;;;;;;;5030506;28;1008;-73
2022/05/01 05:55:39;;;;;;;;;;;;;;;;;;5030745;28;897;-73
2022/05/01 05:58:07;;;;;;;;;;;;;;;;;;5028800;28;1445;-73
2022/05/01 06:00:33;;;;;;;;;;;;;;;;;;5030675;28;937;-73
2022/05/01 06:02:59;;;;;;;;;;;;;;;;;;5030423;28;1460;-75
2022/05/01 06:05:26;;;;;;;;;;;;;;;;;;5030207;28;972;-73
2022/05/01 06:07:52;;;;;;;;;;;;;;;;;;5030456;28;1393;-74
2022/05/01 06:10:18;;;;;;;;;;;;;;;;;;5030548;28;1907;-73
2022/05/01 06:12:45;;;;;;;;;;;;;;;;;;5030465;28;985;-73
2022/05/01 06:15:12;;;;;;;;;;;;;;;;;;5030498;28;1071;-73
2022/05/01 06:17:39;;;;;;;;;;;;;;;;;;5030075;28;1381;-73
2022/05/01 06:20:05;;;;;;;;;;;;;;;;;;5030359;28;791;-73
2022/05/01 06:22:32;;;;;;;;;;;;;;;;;;5030190;28;806;-73
2022/05/01 06:24:58;;;;;;;;;;;;;;;;;;5030012;28;1267;-73
2022/05/01 06:27:24;;;;;;;;;;;;;;;;;;5029805;28;1275;-73
2022/05/01 06:29:50;;;;;;;;;;;;;;;;;;5030372;28;683;-73
2022/05/01 06:32:19;;;;;;;;;;;;;;;;;;5028917;28;1989;-73
2022/05/01 06:34:45;;;;;;;;;;;;;;;;;;5030163;28;953;-73
2022/05/01 06:37:11;;;;;;;;;;;;;;;;;;5029699;28;1341;-73
2022/05/01 06:39:37;;;;;;;;;;;;;;;;;;5030586;28;1120;-73
2022/05/01 06:42:05;;;;;;;;;;;;;;;;;;5029821;28;977;-73
2022/05/01 06:44:31;;;;;;;;;;;;;;;;;;5030108;28;1130;-73
2022/05/01 06:46:57;;;;;;;;;;;;;;;;;;5028410;28;1349;-73
2022/05/01 06:49:25;;;;;;;;;;;;;;;;;;5030200;28;1139;-74
2022/05/01 06:51:51;;;;;;;;;;;;;;;;;;5033444;28;1968;-73
2022/05/01 06:54:17;;;;;;;;;;;;;;;;;;5033845;28;993;-73
2022/05/01 06:56:44;;;;;;;;;;;;;;;;;;5033621;28;1542;-73
2022/05/01 06:59:10;;;;;;;;;;;;;;;;;;5033567;28;798;-73
2022/05/01 07:01:36;;;;;;;;;;;;;;;;;;5033728;28;1142;-73
2022/05/01 07:04:02;;;;;;;;;;;;;;;;;;5032347;28;1308;-72
2022/05/01 07:06:30;;;;;;;;;;;;;;;;;;5033425;28;1291;-73
2022/05/01 07:08:56;;;;;;;;;;;;;;;;;;5033597;28;1059;-73
2022/05/01 07:11:22;;;;;;;;;;;;;;;;;;5033748;28;1971;-73
2022/05/01 07:13:49;;;;;;;;;;;;;;;;;;5032981;28;893;-73
2022/05/01 07:16:15;;;;;;;;;;;;;;;;;;5033211;28;1432;-73
2022/05/01 07:18:41;;;;;;;;;;;;;;;;;;5033012;28;1519;-72
2022/05/01 07:21:09;;;;;;;;;;;;;;;;;;5033077;28;1067;-73
2022/05/01 07:23:36;;;;;;;;;;;;;;;;;;5033236;28;957;-73
2022/05/01 07:26:03;;;;;;;;;;;;;;;;;;5033287;28;1064;-73
2022/05/01 07:28:29;;;;;;;;;;;;;;;;;;5031660;28;1297;-73
2022/05/01 07:30:55;;;;;;;;;;;;;;;;;;5032921;28;1967;-72
2022/05/01 07:33:22;;;;;;;;;;;;;;;;;;5033155;28;861;-73
2022/05/01 07:35:48;;;;;;;;;;;;;;;;;;5033227;28;1024;-72
2022/05/01 07:38:14;;;;;;;;;;;;;;;;;;5031266;28;1321;-73
2022/05/01 07:40:42;;;;;;;;;;;;;;;;;;5031947;28;1382;-73
2022/05/01 07:43:08;;;;;;;;;;;;;;;;;;5032781;28;888;-72
2022/05/01 07:45:34;;;;;;;;;;;;;;;;;;5031966;28;1179;-71
2022/05/01 07:48:01;;;;;;;;;;;;;;;;;;5032821;28;1389;-71
2022/05/01 07:50:27;;;;;;;;;;;;;;;;;;5032957;28;1217;-70
2022/05/01 07:52:53;;;;;;;;;;;;;;;;;;5032689;28;1989;-71
2022/05/01 07:55:19;;;;;;;;;;;;;;;;;;5032844;28;846;-71
2022/05/01 07:57:47;;;;;;;;;;;;;;;;;;5032330;28;1401;-71
2022/05/01 08:00:14;;;;;;;;;;;;;;;;;;5032600;28;918;-71
2022/05/01 08:05:23;;;;;;;;;;;;;;;;;;5032477;28;1172;-71
2022/05/01 08:07:49;;;;;;;;;;;;;;;;;;5032347;28;1345;-71
2022/05/01 08:10:15;;;;;;;;;;;;;;;;;;5032455;28;1080;-70
2022/05/01 08:12:41;;;;;;;;;;;;;;;;;;5030676;28;1969;-71
2022/05/01 08:15:10;;;;;;;;;;;;;;;;;;5032455;28;1079;-73
2022/05/01 08:17:36;;;;;;;;;;;;;;;;;;5029897;28;2170;-72
2022/05/01 08:22:46;;;;;;;;;;;;;;;;;;5010886;28;1418;-72
2022/05/01 08:25:12;;;;;;;;;;;;;;;;;;5011175;28;1176;-71
2022/05/01 08:27:39;;;;;;;;;;;;;;;;;;5010996;28;1532;-71
2022/05/01 08:30:05;;;;;;;;;;;;;;;;;;5012450;28;1025;-71
2022/05/01 08:32:33;;;;;;;;;;;;;;;;;;5011192;28;1906;-71
2022/05/01 08:34:59;;;;;;;;;;;;;;;;;;5012516;28;1088;-70
2022/05/01 08:37:25;;;;;;;;;;;;;;;;;;5012922;28;1384;-72
2022/05/01 08:39:51;;;;;;;;;;;;;;;;;;5012280;28;1118;-70
2022/05/01 08:42:18;;;;;;;;;;;;;;;;;;5012626;28;1065;-72
2022/05/01 08:44:44;;;;;;;;;;;;;;;;;;5011968;28;1265;-72
2022/05/01 08:47:12;;;;;;;;;;;;;;;;;;5012272;28;1317;-72
2022/05/01 08:49:40;;;;;;;;;;;;;;;;;;5012378;28;1099;-72
2022/05/01 08:52:07;;;;;;;;;;;;;;;;;;5014363;28;1915;-70
2022/05/01 08:54:33;;;;;;;;;;;;;;;;;;5011463;28;850;-72
2022/05/01 08:56:59;;;;;;;;;;;;;;;;;;5024423;28;1298;-72
2022/05/01 08:59:25;;;;;;;;;;;;;;;;;;5030996;28;1115;-71
2022/05/01 09:01:52;;;;;;;;;;;;;;;;;;5030975;28;949;-72
2022/05/01 09:04:18;;;;;;;;;;;;;;;;;;5029337;28;1234;-72
2022/05/01 09:06:46;;;;;;;;;;;;;;;;;;5030413;28;1328;-71
2022/05/01 09:09:16;;;;;;;;;;;;;;;;;;5030929;28;1004;-73
2022/05/01 09:14:27;;;;;;;;;;;;;;;;;;5030355;28;917;-72
2022/05/01 09:17:12;;;;;;;;;;;;;;;;;;5030280;28;1305;-71
2022/05/01 09:19:39;;;;;;;;;;;;;;;;;;5030139;28;1641;-71
2022/05/01 09:22:06;;;;;;;;;;;;;;;;;;5030454;28;1080;-71
2022/05/01 09:24:33;;;;;;;;;;;;;;;;;;5030405;28;897;-72
2022/05/01 09:26:59;;;;;;;;;;;;;;;;;;5030558;28;1317;-71
2022/05/01 09:29:26;;;;;;;;;;;;;;;;;;5029238;28;1120;-71
2022/05/01 09:31:53;;;;;;;;;;;;;;;;;;5030336;28;1926;-72
2022/05/01 09:34:19;;;;;;;;;;;;;;;;;;5029712;28;1219;-72
2022/05/01 09:36:45;;;;;;;;;;;;;;;;;;5030171;28;1302;-72
2022/05/01 09:39:13;;;;;;;;;;;;;;;;;;5030386;28;1126;-72
2022/05/01 09:41:42;;;;;;;;;;;;;;;;;;5030453;28;919;-71
2022/05/01 09:44:12;;;;;;;;;;;;;;;;;;5030615;28;1111;-71
2022/05/01 09:46:38;;;;;;;;;;;;;;;;;;5029596;28;1314;-71
2022/05/01 09:49:05;;;;;;;;;;;;;;;;;;5030174;28;1364;-71
2022/05/01 09:51:32;;;;;;;;;;;;;;;;;;5028586;28;1918;-70
2022/05/01 09:53:58;;;;;;;;;;;;;;;;;;5030213;28;1243;-73
2022/05/01 09:56:26;;;;;;;;;;;;;;;;;;5029211;28;1460;-72
2022/05/01 09:59:02;;;;;;;;;;;;;;;;;;5041577;22;3538;-69
2022/05/01 10:01:28;;;;;;;;;;;;;;;;;;5029497;28;1060;-68
2022/05/01 10:03:55;;;;;;;;;;;;;;;;;;5028491;28;1108;-70
2022/05/01 10:06:23;;;;;;;;;;;;;;;;;;5029904;28;771;-70
2022/05/01 10:08:49;;;;;;;;;;;;;;;;;;5029789;28;1392;-70
2022/05/01 10:11:16;;;;;;;;;;;;;;;;;;5028389;28;1957;-69
2022/05/01 10:13:44;;;;;;;;;;;;;;;;;;5029495;28;1097;-69
2022/05/01 10:16:11;;;;;;;;;;;;;;;;;;5038935;28;1320;-68
2022/05/01 10:18:38;;;;;;;;;;;;;;;;;;5029875;28;1369;-69
2022/05/01 10:21:05;;;;;;;;;;;;;;;;;;5029556;28;1111;-69
2022/05/01 10:23:31;;;;;;;;;;;;;;;;;;5030007;28;886;-69
2022/05/01 10:25:59;;;;;;;;;;;;;;;;;;5030768;28;1182;-69
2022/05/01 10:28:39;;;;;;;;;;;;;;;;;;5033562;28;1403;-69
2022/05/01 10:33:59;;;;;;;;;;;;;;;;;;5033730;28;961;-69
2022/05/01 10:36:31;;;;;;;;;;;;;;;;;;5033577;28;1004;-69
2022/05/01 10:39:06;;;;;;;;;;;;;;;;;;5033589;28;1357;-70
2022/05/01 10:41:33;;;;;;;;;;;;;;;;;;5033223;28;1283;-69
2022/05/01 10:43:59;;;;;;;;;;;;;;;;;;5032599;28;1263;-69
2022/05/01 10:46:31;;;;;;;;;;;;;;;;;;5032867;28;1005;-69
2022/05/01 10:49:00;;;;;;;;;;;;;;;;;;5033253;28;1289;-69
2022/05/01 10:51:41;;;;;;;;;;;;;;;;;;5033275;28;926;-70
2022/05/01 10:54:26;;;;;;;;;;;;;;;;;;5033233;28;952;-70
2022/05/01 10:56:53;;;;;;;;;;;;;;;;;;5032492;28;1080;-69
2022/05/01 10:59:35;;;;;;;;;;;;;;;;;;5033184;28;1349;-68
2022/05/01 11:02:03;;;;;;;;;;;;;;;;;;5033601;28;1103;-70
2022/05/01 11:04:30;;;;;;;;;;;;;;;;;;5032676;28;787;-69
2022/05/01 11:06:56;;;;;;;;;;;;;;;;;;5032584;28;873;-70
2022/05/01 11:09:23;;;;;;;;;;;;;;;;;;5033136;28;1346;-69
2022/05/01 11:11:52;;;;;;;;;;;;;;;;;;5033237;28;1966;-69
2022/05/01 11:14:19;;;;;;;;;;;;;;;;;;5027058;28;2062;-70
2022/05/01 11:16:52;;;;;;;;;;;;;;;;;;5025202;28;2003;-70
2022/05/01 11:19:19;;;;;;;;;;;;;;;;;;5030148;28;2010;-70
2022/05/01 11:21:47;;;;;;;;;;;;;;;;;;5032362;28;1173;-70
2022/05/01 11:24:15;;;;;;;;;;;;;;;;;;5032716;28;921;-70
2022/05/01 11:26:42;;;;;;;;;;;;;;;;;;5031861;28;1095;-70
2022/05/01 11:29:10;;;;;;;;;;;;;;;;;;5032441;28;1511;-70
2022/05/01 11:31:49;;;;;;;;;;;;;;;;;;5032419;28;1083;-70
2022/05/01 11:34:42;;;;;;;;;;;;;;;;;;5032405;28;925;-70
2022/05/01 11:37:10;;;;;;;;;;;;;;;;;;5031584;28;989;-70
2022/05/01 11:39:54;;;;;;;;;;;;;;;;;;5031998;28;1329;-70
2022/05/01 11:42:29;;;;;;;;;;;;;;;;;;5032378;28;1075;-69
2022/05/01 11:44:56;;;;;;;;;;;;;;;;;;5031841;28;1031;-70
2022/05/01 11:47:23;;;;;;;;;;;;;;;;;;5032282;28;1306;-69
2022/05/01 11:49:50;;;;;;;;;;;;;;;;;;5031997;28;1156;-70
2022/05/01 11:52:18;;;;;;;;;;;;;;;;;;5031967;28;1910;-70
2022/05/01 11:54:45;;;;;;;;;;;;;;;;;;5031653;28;776;-69
2022/05/01 12:02:39;;;;;;;;;;;;;;;;;;5031981;28;1045;-69
2022/05/01 12:05:06;;;;;;;;;;;;;;;;;;5030221;28;1190;-69
2022/05/01 12:07:33;;;;;;;;;;;;;;;;;;5031496;28;1293;-70
2022/05/01 12:09:59;;;;;;;;;;;;;;;;;;5028845;28;1395;-69
2022/05/01 12:12:27;;;;;;;;;;;;;;;;;;5034526;28;1977;-70
2022/05/01 12:14:54;;;;;;;;;;;;;;;;;;5031039;28;1130;-70
2022/05/01 12:17:21;;;;;;;;;;;;;;;;;;5038595;28;1290;-69
2022/05/01 12:19:48;;;;;;;;;;;;;;;;;;5051466;28;1115;-70
2022/05/01 12:22:14;;;;;;;;;;;;;;;;;;5051423;28;1056;-67
2022/05/01 12:24:43;;;;;;;;;;;;;;;;;;5051201;28;770;-70
2022/05/01 12:27:09;;;;;;;;;;;;;;;;;;5035117;28;1832;-70
2022/05/01 12:29:36;;;;;;;;;;;;;;;;;;5030248;28;1318;-70
2022/05/01 12:32:07;;;;;;;;;;;;;;;;;;5030326;28;1973;-71
2022/05/01 12:34:34;;;;;;;;;;;;;;;;;;5028704;28;1714;-69
2022/05/01 12:37:01;;;;;;;;;;;;;;;;;;5026959;28;1663;-70
2022/05/01 12:39:28;;;;;;;;;;;;;;;;;;5031630;28;1259;-70
2022/05/01 12:45:06;;;;;;;;;;;;;;;;;;5026160;28;1504;-69
2022/05/01 12:47:33;;;;;;;;;;;;;;;;;;5027693;28;1353;-69
2022/05/01 12:49:59;;;;;;;;;;;;;;;;;;5026786;28;1971;-69
2022/05/01 12:52:31;;;;;;;;;;;;;;;;;;5028338;28;1915;-70
2022/05/01 12:55:04;;;;;;;;;;;;;;;;;;5027327;28;1397;-69
2022/05/01 12:57:32;;;;;;;;;;;;;;;;;;5026892;28;1355;-69
2022/05/01 12:59:58;;;;;;;;;;;;;;;;;;5025695;28;1114;-70
2022/05/01 13:02:25;;;;;;;;;;;;;;;;;;5025005;28;1988;-69
2022/05/01 13:04:56;;;;;;;;;;;;;;;;;;5015604;28;1107;-70
2022/05/01 13:07:27;;;;;;;;;;;;;;;;;;5023385;28;1742;-68
2022/05/01 13:09:54;;;;;;;;;;;;;;;;;;5023856;28;1701;-69
2022/05/01 13:12:28;;;;;;;;;;;;;;;;;;5030208;28;1975;-69
2022/05/01 13:14:57;;;;;;;;;;;;;;;;;;5031422;28;1991;-70
2022/05/01 13:17:24;;;;;;;;;;;;;;;;;;5026477;28;1630;-67
2022/05/01 13:19:50;;;;;;;;;;;;;;;;;;5030984;28;1197;-69
2022/05/01 13:22:17;;;;;;;;;;;;;;;;;;5030961;28;1012;-70
2022/05/01 13:24:44;;;;;;;;;;;;;;;;;;5029521;28;1530;-69
2022/05/01 13:27:11;;;;;;;;;;;;;;;;;;5029641;28;1307;-68
2022/05/01 13:29:38;;;;;;;;;;;;;;;;;;5026532;28;1380;-68
2022/05/01 13:32:07;;;;;;;;;;;;;;;;;;5023883;28;1283;-70
2022/05/01 13:34:34;;;;;;;;;;;;;;;;;;5030697;28;1914;-69
2022/05/01 13:37:00;;;;;;;;;;;;;;;;;;5029302;28;1108;-69
2022/05/01 13:44:44;;;;;;;;;;;;;;;;;;5030758;28;1342;-69
2022/05/01 13:44:58;;;;;;;;;;;;;;;;;;5029048;28;1424;-69
2022/05/01 13:47:26;;;;;;;;;;;;;;;;;;5030089;28;1297;-68
2022/05/01 13:49:53;;;;;;;;;;;;;;;;;;5021669;28;1524;-68
2022/05/01 13:52:19;;;;;;;;;;;;;;;;;;5026694;28;1407;-70
2022/05/01 13:54:46;;;;;;;;;;;;;;;;;;5025079;28;1972;-69
2022/05/01 13:57:12;;;;;;;;;;;;;;;;;;5030028;28;1450;-69
2022/05/01 13:59:38;;;;;;;;;;;;;;;;;;5030025;28;1323;-69
2022/05/01 14:02:05;;;;;;;;;;;;;;;;;;5028592;28;1107;-69
2022/05/01 14:04:32;;;;;;;;;;;;;;;;;;5025823;28;1415;-69
2022/05/01 14:06:58;;;;;;;;;;;;;;;;;;5028111;28;1406;-69
2022/05/01 14:09:25;;;;;;;;;;;;;;;;;;5020960;28;1731;-68
2022/05/01 14:11:51;;;;;;;;;;;;;;;;;;5029123;28;1470;-69
2022/05/01 14:14:18;;;;;;;;;;;;;;;;;;5029612;28;1914;-70
2022/05/01 14:16:44;;;;;;;;;;;;;;;;;;5028625;28;1443;-69
2022/05/01 14:19:11;;;;;;;;;;;;;;;;;;5024434;28;1924;-69
2022/05/01 14:21:39;;;;;;;;;;;;;;;;;;5015489;28;1645;-69
2022/05/01 14:24:06;;;;;;;;;;;;;;;;;;5027822;28;1395;-69
2022/05/01 14:26:32;;;;;;;;;;;;;;;;;;5022532;28;1262;-67
2022/05/01 14:28:58;;;;;;;;;;;;;;;;;;5022765;28;1391;-70
2022/05/01 14:31:26;;;;;;;;;;;;;;;;;;5027952;28;1114;-69
2022/05/01 14:33:55;;;;;;;;;;;;;;;;;;5020188;28;1977;-68
2022/05/01 14:36:22;;;;;;;;;;;;;;;;;;5027772;28;1247;-69
2022/05/01 14:38:51;;;;;;;;;;;;;;;;;;5021083;28;1447;-69
2022/05/01 14:41:21;;;;;;;;;;;;;;;;;;5027803;28;1533;-69
2022/05/01 14:43:47;;;;;;;;;;;;;;;;;;5022523;28;1808;-68
2022/05/01 14:46:14;;;;;;;;;;;;;;;;;;5026162;28;1792;-69
2022/05/01 14:48:40;;;;;;;;;;;;;;;;;;5028030;28;1396;-69
2022/05/01 14:51:08;;;;;;;;;;;;;;;;;;5025681;28;1598;-68
2022/05/01 14:53:34;;;;;;;;;;;;;;;;;;5027711;28;1902;-69
2022/05/01 14:56:02;;;;;;;;;;;;;;;;;;5025114;28;2848;-68
2022/05/01 15:06:43;;;;;;;;;;;;;;;;;;5021984;28;1343;-69
2022/05/01 15:09:09;;;;;;;;;;;;;;;;;;5027342;28;1652;-69
2022/05/01 15:11:38;;;;;;;;;;;;;;;;;;5029482;28;1609;-68
2022/05/01 15:14:04;;;;;;;;;;;;;;;;;;5033087;28;1973;-70
2022/05/01 15:16:34;;;;;;;;;;;;;;;;;;5030699;28;1743;-70
2022/05/01 15:19:01;;;;;;;;;;;;;;;;;;5033298;28;1306;-69
2022/05/01 15:22:20;;;;;;;;;;;;;;;;;;5030948;28;1932;-70
2022/05/01 15:24:19;;;;;;;;;;;;;;;;;;5028682;28;1712;-68
2022/05/01 15:26:47;;;;;;;;;;;;;;;;;;5030867;28;1593;-70
2022/05/01 15:29:13;;;;;;;;;;;;;;;;;;5029177;28;1746;-70
2022/05/01 15:31:41;;;;;;;;;;;;;;;;;;5032101;28;1617;-70
2022/05/01 15:34:07;;;;;;;;;;;;;;;;;;5030756;28;1977;-69
2022/05/01 15:36:35;;;;;;;;;;;;;;;;;;5030975;28;1582;-70
2022/05/01 15:39:02;;;;;;;;;;;;;;;;;;5029177;28;1461;-70
2022/05/01 15:41:30;;;;;;;;;;;;;;;;;;5030521;28;1942;-70
2022/05/01 15:43:59;;;;;;;;;;;;;;;;;;5030351;28;1462;-68
2022/05/01 15:46:29;;;;;;;;;;;;;;;;;;5030382;28;930;-70
2022/05/01 15:54:25;;;;;;;;;;;;;;;;;;5025621;28;1968;-69
2022/05/01 15:56:52;;;;;;;;;;;;;;;;;;5023526;28;1639;-69
2022/05/01 15:59:20;;;;;;;;;;;;;;;;;;5028240;28;1318;-68
2022/05/01 16:01:46;;;;;;;;;;;;;;;;;;5028982;28;2085;-70
2022/05/01 16:04:12;;;;;;;;;;;;;;;;;;5025750;28;1506;-70
2022/05/01 16:06:39;;;;;;;;;;;;;;;;;;5026327;28;1364;-70
2022/05/01 16:09:07;;;;;;;;;;;;;;;;;;5025858;28;1657;-71
2022/05/01 16:11:34;;;;;;;;;;;;;;;;;;5030301;28;1157;-71
2022/05/01 16:14:02;;;;;;;;;;;;;;;;;;5028589;28;1914;-70
2022/05/01 16:16:33;;;;;;;;;;;;;;;;;;5029846;28;1110;-70
2022/05/01 16:19:06;;;;;;;;;;;;;;;;;;5017270;28;1747;-71
2022/05/01 16:21:34;;;;;;;;;;;;;;;;;;5025476;28;1846;-70
2022/05/01 16:24:02;;;;;;;;;;;;;;;;;;5026088;28;1458;-70
2022/05/01 16:26:29;;;;;;;;;;;;;;;;;;5029454;28;1161;-71
2022/05/01 16:28:59;;;;;;;;;;;;;;;;;;5027951;28;1744;-70
2022/05/01 16:31:27;;;;;;;;;;;;;;;;;;5023528;28;1814;-69
2022/05/01 16:33:56;;;;;;;;;;;;;;;;;;5027745;28;1973;-70
2022/05/01 16:36:23;;;;;;;;;;;;;;;;;;5024966;28;1818;-69
2022/05/01 16:38:50;;;;;;;;;;;;;;;;;;5028217;28;1545;-70
2022/05/01 16:41:16;;;;;;;;;;;;;;;;;;5028309;28;1228;-69
2022/05/01 16:43:42;;;;;;;;;;;;;;;;;;5027858;28;1735;-70
2022/05/01 16:46:09;;;;;;;;;;;;;;;;;;5029271;28;1201;-69
2022/05/01 16:48:35;;;;;;;;;;;;;;;;;;5027076;28;1755;-71
2022/05/01 16:51:03;;;;;;;;;;;;;;;;;;5029258;28;1161;-69
2022/05/01 16:53:29;;;;;;;;;;;;;;;;;;5026413;28;1971;-68
2022/05/01 16:55:56;;;;;;;;;;;;;;;;;;5029475;28;1161;-70
2022/05/01 16:58:24;;;;;;;;;;;;;;;;;;5026498;28;1500;-70
2022/05/01 17:00:53;;;;;;;;;;;;;;;;;;5027238;28;1569;-70
2022/05/01 17:03:20;;;;;;;;;;;;;;;;;;5029250;28;1157;-70
2022/05/01 17:05:53;;;;;;;;;;;;;;;;;;5025123;28;1838;-71
2022/05/01 17:08:25;;;;;;;;;;;;;;;;;;5021336;28;1341;-70
2022/05/01 17:10:52;;;;;;;;;;;;;;;;;;5027463;28;1751;-70
2022/05/01 17:13:26;;;;;;;;;;;;;;;;;;5029229;28;1118;-69
2022/05/01 17:15:53;;;;;;;;;;;;;;;;;;5025656;28;1814;-70
2022/05/01 17:18:19;;;;;;;;;;;;;;;;;;5028715;28;1404;-71
2022/05/01 17:20:47;;;;;;;;;;;;;;;;;;5027029;28;1811;-70
2022/05/01 17:23:16;;;;;;;;;;;;;;;;;;5026426;28;1124;-71
2022/05/01 17:25:48;;;;;;;;;;;;;;;;;;5027082;28;1744;-71
2022/05/01 17:28:15;;;;;;;;;;;;;;;;;;5020154;28;1322;-71
2022/05/01 17:30:44;;;;;;;;;;;;;;;;;;5026896;28;1807;-71
2022/05/01 17:33:12;;;;;;;;;;;;;;;;;;5026459;28;1620;-71
2022/05/01 17:35:38;;;;;;;;;;;;;;;;;;5017954;28;1921;-70
2022/05/01 17:38:05;;;;;;;;;;;;;;;;;;5026315;28;1526;-71
2022/05/01 17:40:31;;;;;;;;;;;;;;;;;;5028898;28;1161;-71
2022/05/01 17:42:59;;;;;;;;;;;;;;;;;;5022096;28;1830;-69
2022/05/01 17:45:25;;;;;;;;;;;;;;;;;;5028225;28;1102;-71
2022/05/01 17:47:52;;;;;;;;;;;;;;;;;;5027392;28;1775;-71
2022/05/01 17:50:20;;;;;;;;;;;;;;;;;;5028402;28;1112;-70
2022/05/01 17:52:47;;;;;;;;;;;;;;;;;;5024608;28;1818;-71
2022/05/01 17:55:14;;;;;;;;;;;;;;;;;;5020814;28;1930;-72
2022/05/01 17:57:40;;;;;;;;;;;;;;;;;;5025737;28;1743;-70
2022/05/01 18:00:09;;;;;;;;;;;;;;;;;;5028302;28;1153;-69
2022/05/01 18:02:45;;;;;;;;;;;;;;;;;;5023303;28;1751;-70
2022/05/01 18:10:43;;;;;;;;;;;;;;;;;;5016500;28;1223;-70
2022/05/01 18:13:12;;;;;;;;;;;;;;;;;;5022684;28;1792;-70